Time;durP1;ratioP1;P1;durP2;ratioP2;P2;SDS_P1;SDS_P2;PMS_P1;PMS_P2;Temp;Humidity;BMP_temperature;BMP_pressure;BME280_temperature;BME280_humidity;BME280_pressure;Samples;Min_cycle;Max_cycle;Signal;HPM_P1;HPM_P2
2022/08/12 00:44:38;;;;;;;;;;;26.50;45.00;;;;;;5078638;28;19919;-66
2022/08/12 00:47:04;;;;;;;;;;;26.40;44.90;;;;;;5078657;28;19913;-66
2022/08/12 00:49:29;;;;;;;;;;;26.40;45.10;;;;;;5089989;28;19923;-66
2022/08/12 00:52:05;;;;;;;;;;;26.30;45.50;;;;;;5089530;28;19962;-66
2022/08/12 00:54:51;;;;;;;;;;;26.20;45.50;;;;;;5079060;28;20350;-66
2022/08/12 00:57:18;;;;;;;;;;;26.20;45.60;;;;;;5089800;28;20002;-65
2022/08/12 00:59:46;;;;;;;;;;;26.10;45.80;;;;;;5086143;28;19920;-66
2022/08/12 01:02:13;;;;;;;;;;;26.00;45.90;;;;;;5090407;28;19912;-66
2022/08/12 01:12:54;;;;;;;;;;;25.80;46.40;;;;;;5088708;28;19935;-65
2022/08/12 01:15:20;;;;;;;;;;;25.70;46.40;;;;;;5084653;28;19917;-66
2022/08/12 01:17:46;;;;;;;;;;;25.80;46.70;;;;;;5086929;28;20562;-61
2022/08/12 01:20:17;;;;;;;;;;;25.70;46.80;;;;;;5090156;28;19955;-66
2022/08/12 01:23:08;;;;;;;;;;;25.70;47.00;;;;;;5089077;28;19923;-66
2022/08/12 01:25:36;;;;;;;;;;;25.60;47.10;;;;;;5083170;28;19923;-66
2022/08/12 01:28:02;;;;;;;;;;;25.50;47.20;;;;;;5088247;28;19951;-66
2022/08/12 01:30:32;;;;;;;;;;;25.50;47.30;;;;;;5093636;28;20435;-66
2022/08/12 01:32:59;;;;;;;;;;;25.50;47.30;;;;;;5099261;28;20150;-66
2022/08/12 01:35:25;;;;;;;;;;;25.50;47.40;;;;;;5092587;28;20295;-66
2022/08/12 01:38:03;;;;;;;;;;;25.40;47.50;;;;;;5094919;28;19920;-66
2022/08/12 01:40:31;;;;;;;;;;;25.40;47.70;;;;;;5093332;28;19965;-66
2022/08/12 01:43:01;;;;;;;;;;;25.30;47.80;;;;;;5099996;28;19942;-61
2022/08/12 01:45:28;;;;;;;;;;;25.30;47.80;;;;;;5097561;28;19970;-60
2022/08/12 01:47:59;;;;;;;;;;;25.30;47.90;;;;;;5088698;28;19923;-60
2022/08/12 01:50:33;;;;;;;;;;;25.30;48.00;;;;;;5101819;28;19915;-65
2022/08/12 01:53:05;;;;;;;;;;;25.20;48.10;;;;;;5097866;28;19920;-65
2022/08/12 01:55:32;;;;;;;;;;;25.20;48.40;;;;;;5097247;28;19911;-65
2022/08/12 01:58:02;;;;;;;;;;;25.20;48.60;;;;;;5093101;28;20006;-65
2022/08/12 02:00:43;;;;;;;;;;;25.10;48.60;;;;;;5091351;28;19912;-65
2022/08/12 02:03:16;;;;;;;;;;;25.10;48.80;;;;;;5096974;28;19912;-65
2022/08/12 02:11:30;;;;;;;;;;;25.00;49.10;;;;;;5095997;28;19922;-65
2022/08/12 02:14:11;;;;;;;;;;;24.90;49.10;;;;;;5104202;28;20370;-61
2022/08/12 02:16:37;;;;;;;;;;;24.90;49.30;;;;;;5100808;28;20015;-61
2022/08/12 02:19:09;;;;;;;;;;;24.90;49.50;;;;;;5093011;28;20006;-66
2022/08/12 02:21:42;;;;;;;;;;;24.80;49.60;;;;;;5097545;28;19916;-66
2022/08/12 02:24:12;;;;;;;;;;;24.80;49.80;;;;;;5089111;28;19920;-66
2022/08/12 02:26:38;;;;;;;;;;;24.70;49.80;;;;;;5100968;28;20252;-60
2022/08/12 02:29:06;;;;;;;;;;;24.70;50.00;;;;;;5096778;28;19951;-66
2022/08/12 02:31:33;;;;;;;;;;;24.70;50.10;;;;;;5101720;28;20290;-65
2022/08/12 02:33:58;;;;;;;;;;;24.70;50.20;;;;;;5091226;28;19916;-60
2022/08/12 02:36:24;;;;;;;;;;;24.60;50.10;;;;;;5099686;28;20331;-60
2022/08/12 02:38:51;;;;;;;;;;;24.60;50.20;;;;;;5093127;28;19916;-61
2022/08/12 02:41:20;;;;;;;;;;;24.60;50.10;;;;;;5089656;28;20406;-65
2022/08/12 02:43:53;;;;;;;;;;;24.60;50.20;;;;;;5101487;28;20420;-65
2022/08/12 02:46:28;;;;;;;;;;;24.60;50.50;;;;;;5093346;28;20262;-65
2022/08/12 02:49:13;;;;;;;;;;;24.50;50.60;;;;;;5095375;28;19927;-65
2022/08/12 02:51:41;;;;;;;;;;;24.50;50.70;;;;;;5094541;28;19922;-65
2022/08/12 02:54:06;;;;;;;;;;;24.40;50.70;;;;;;5093107;28;19955;-60
2022/08/12 02:56:36;;;;;;;;;;;24.40;50.80;;;;;;5092248;28;20353;-61
2022/08/12 02:59:02;;;;;;;;;;;24.40;50.80;;;;;;5091049;28;20049;-60
2022/08/12 03:01:32;;;;;;;;;;;24.40;50.90;;;;;;5089509;28;19949;-64
2022/08/12 03:03:58;;;;;;;;;;;24.40;51.00;;;;;;5078732;28;19916;-65
2022/08/12 03:06:26;;;;;;;;;;;24.30;50.90;;;;;;5086017;28;19916;-64
2022/08/12 03:08:55;;;;;;;;;;;24.30;51.10;;;;;;5092273;28;19916;-65
2022/08/12 03:11:24;;;;;;;;;;;24.30;51.20;;;;;;5085993;28;19923;-60
2022/08/12 03:13:51;;;;;;;;;;;24.30;51.10;;;;;;5101609;28;19916;-61
2022/08/12 03:16:19;;;;;;;;;;;24.30;51.10;;;;;;5101288;28;19919;-60
2022/08/12 03:18:44;;;;;;;;;;;24.20;51.00;;;;;;5090097;28;20323;-59
2022/08/12 03:21:12;;;;;;;;;;;24.20;51.00;;;;;;5091536;28;20023;-65
2022/08/12 03:23:39;;;;;;;;;;;24.20;51.20;;;;;;5092101;28;19919;-60
2022/08/12 03:26:06;;;;;;;;;;;24.20;51.20;;;;;;5098375;28;20370;-65
2022/08/12 03:31:18;;;;;;;;;;;24.10;51.40;;;;;;5089483;28;19969;-65
2022/08/12 03:33:45;;;;;;;;;;;24.00;51.70;;;;;;5088815;28;20327;-65
2022/08/12 03:36:16;;;;;;;;;;;24.00;51.80;;;;;;5089075;28;20371;-65
2022/08/12 03:38:43;;;;;;;;;;;24.00;51.80;;;;;;5091896;28;20012;-59
2022/08/12 03:41:33;;;;;;;;;;;23.90;51.90;;;;;;5089236;28;20010;-59
2022/08/12 04:00:29;;;;;;;;;;;23.80;51.90;;;;;;5082317;28;20004;-60
2022/08/12 04:03:00;;;;;;;;;;;23.80;52.00;;;;;;5097166;28;20358;-60
2022/08/12 04:05:29;;;;;;;;;;;23.80;52.00;;;;;;5092839;28;19931;-60
2022/08/12 04:07:55;;;;;;;;;;;23.80;52.10;;;;;;5091062;28;19920;-60
2022/08/12 04:10:21;;;;;;;;;;;23.80;52.10;;;;;;5090425;28;19916;-60
2022/08/12 04:13:15;;;;;;;;;;;23.70;52.10;;;;;;5096400;28;20334;-61
2022/08/12 04:15:44;;;;;;;;;;;23.70;52.20;;;;;;5089125;28;19920;-60
2022/08/12 04:18:14;;;;;;;;;;;23.70;52.10;;;;;;5085057;28;19931;-65
2022/08/12 04:20:43;;;;;;;;;;;23.70;52.00;;;;;;5089653;28;19920;-65
2022/08/12 04:23:11;;;;;;;;;;;23.70;52.10;;;;;;5087027;28;19920;-65
2022/08/12 04:25:38;;;;;;;;;;;23.70;52.00;;;;;;5090333;28;19916;-65
2022/08/12 04:28:05;;;;;;;;;;;23.60;52.10;;;;;;5103672;28;19912;-65
2022/08/12 04:30:30;;;;;;;;;;;23.60;52.10;;;;;;5096314;28;20353;-65
2022/08/12 04:32:57;;;;;;;;;;;23.60;52.20;;;;;;5105045;28;19918;-65
2022/08/12 04:35:22;;;;;;;;;;;23.60;52.30;;;;;;5090514;28;19923;-60
2022/08/12 04:37:54;;;;;;;;;;;23.60;52.30;;;;;;5090501;28;19916;-61
2022/08/12 04:40:29;;;;;;;;;;;23.50;52.30;;;;;;5091532;28;19920;-65
2022/08/12 04:42:54;;;;;;;;;;;23.50;52.50;;;;;;5106323;28;19916;-60
2022/08/12 04:45:20;;;;;;;;;;;23.50;52.60;;;;;;5097328;28;19916;-65
2022/08/12 04:47:46;;;;;;;;;;;23.50;52.80;;;;;;5104357;28;19912;-60
2022/08/12 04:50:15;;;;;;;;;;;23.50;52.90;;;;;;5100503;28;20390;-60
2022/08/12 04:52:40;;;;;;;;;;;23.40;52.80;;;;;;5096463;28;19976;-66
2022/08/12 04:55:07;;;;;;;;;;;23.40;53.00;;;;;;5101014;28;20289;-60
2022/08/12 04:57:32;;;;;;;;;;;23.40;53.10;;;;;;5093534;28;19928;-65
2022/08/12 04:59:58;;;;;;;;;;;23.40;53.20;;;;;;5097526;28;19916;-65
2022/08/12 05:02:25;;;;;;;;;;;23.40;53.20;;;;;;5102590;28;19924;-65
2022/08/12 05:04:54;;;;;;;;;;;23.40;53.20;;;;;;5101578;28;19912;-65
2022/08/12 05:07:21;;;;;;;;;;;23.40;53.10;;;;;;5102105;28;19920;-65
2022/08/12 05:09:47;;;;;;;;;;;23.50;53.00;;;;;;5102428;28;19924;-65
2022/08/12 05:12:13;;;;;;;;;;;23.50;52.80;;;;;;5101323;28;20436;-65
2022/08/12 05:14:39;;;;;;;;;;;23.50;52.60;;;;;;5099744;27;19920;-65
2022/08/12 05:17:04;;;;;;;;;;;23.60;52.50;;;;;;5100155;28;19924;-65
2022/08/12 05:19:30;;;;;;;;;;;23.60;52.40;;;;;;5098448;28;19920;-65
2022/08/12 05:21:55;;;;;;;;;;;23.70;52.30;;;;;;5101862;28;19927;-65
2022/08/12 05:24:21;;;;;;;;;;;23.70;52.10;;;;;;5097283;28;19920;-65
2022/08/12 05:26:47;;;;;;;;;;;23.80;52.00;;;;;;5099878;27;20014;-65
2022/08/12 05:29:13;;;;;;;;;;;23.80;51.80;;;;;;5099755;27;20014;-65
2022/08/12 05:31:39;;;;;;;;;;;23.80;51.60;;;;;;5106259;28;20014;-65
2022/08/12 05:34:05;;;;;;;;;;;23.90;51.50;;;;;;5105664;28;19916;-65
2022/08/12 05:36:30;;;;;;;;;;;23.90;51.40;;;;;;5097705;28;19961;-65
2022/08/12 05:38:56;;;;;;;;;;;24.00;51.30;;;;;;5100976;28;19924;-65
2022/08/12 05:41:33;;;;;;;;;;;24.00;51.20;;;;;;5104438;28;19966;-65
2022/08/12 05:44:00;;;;;;;;;;;24.10;51.10;;;;;;5102579;28;20258;-66
2022/08/12 05:46:27;;;;;;;;;;;24.10;51.00;;;;;;5103821;28;19913;-65
2022/08/12 05:48:53;;;;;;;;;;;24.10;50.80;;;;;;5102936;28;19999;-60
2022/08/12 05:51:25;;;;;;;;;;;24.20;50.80;;;;;;5102720;27;20032;-60
2022/08/12 05:53:52;;;;;;;;;;;24.30;50.80;;;;;;5103203;28;20379;-60
2022/08/12 05:56:18;;;;;;;;;;;24.30;50.60;;;;;;5106383;28;19924;-66
2022/08/12 05:58:45;;;;;;;;;;;24.40;50.50;;;;;;5083434;28;19928;-66
2022/08/12 06:01:10;;;;;;;;;;;24.40;50.30;;;;;;5085208;28;19924;-66
2022/08/12 06:03:36;;;;;;;;;;;24.50;50.10;;;;;;5097179;28;19969;-60
2022/08/12 06:06:02;;;;;;;;;;;24.50;49.90;;;;;;5100696;28;19978;-66
2022/08/12 06:08:27;;;;;;;;;;;24.60;49.80;;;;;;5095081;28;20386;-67
2022/08/12 06:10:54;;;;;;;;;;;24.60;49.50;;;;;;5098072;28;19924;-60
2022/08/12 06:13:19;;;;;;;;;;;24.70;49.40;;;;;;5089377;28;19920;-60
2022/08/12 06:15:45;;;;;;;;;;;24.80;49.20;;;;;;5097648;28;19919;-65
2022/08/12 06:18:11;;;;;;;;;;;24.90;49.10;;;;;;5103400;28;19916;-63
2022/08/12 06:20:37;;;;;;;;;;;25.00;49.00;;;;;;5102194;28;19920;-58
2022/08/12 06:23:03;;;;;;;;;;;25.00;48.60;;;;;;5093046;28;19991;-58
2022/08/12 06:25:28;;;;;;;;;;;25.00;48.50;;;;;;5086698;28;19918;-64
2022/08/12 06:27:58;;;;;;;;;;;25.10;48.30;;;;;;5082041;28;19932;-64
2022/08/12 06:30:27;;;;;;;;;;;25.20;48.20;;;;;;5083605;28;19919;-64
2022/08/12 06:32:53;;;;;;;;;;;25.30;48.00;;;;;;5088691;28;19924;-59
2022/08/12 06:35:18;;;;;;;;;;;25.30;47.90;;;;;;5095865;28;20661;-58
2022/08/12 06:37:48;;;;;;;;;;;25.40;47.90;;;;;;5094426;28;19954;-58
2022/08/12 06:40:14;;;;;;;;;;;25.50;47.60;;;;;;5092145;28;20378;-59
2022/08/12 06:42:51;;;;;;;;;;;25.50;47.30;;;;;;5096144;28;19979;-58
2022/08/12 06:45:17;;;;;;;;;;;25.60;47.30;;;;;;5098416;28;19916;-58
2022/08/12 06:47:42;;;;;;;;;;;25.60;47.80;;;;;;5093432;28;19919;-58
2022/08/12 06:50:14;;;;;;;;;;;25.70;47.00;;;;;;5101968;28;19927;-58
2022/08/12 06:52:41;;;;;;;;;;;25.70;47.00;;;;;;5088829;28;19917;-58
2022/08/12 06:55:06;;;;;;;;;;;25.80;46.90;;;;;;5095336;28;20311;-64
2022/08/12 06:57:32;;;;;;;;;;;25.90;46.50;;;;;;5108056;28;19939;-64
2022/08/12 06:59:57;;;;;;;;;;;25.90;46.30;;;;;;5101062;28;19919;-66
2022/08/12 07:02:24;;;;;;;;;;;26.00;46.30;;;;;;5085712;28;19913;-64
2022/08/12 07:04:51;;;;;;;;;;;26.10;46.00;;;;;;5099472;28;20014;-58
2022/08/12 07:07:17;;;;;;;;;;;26.10;45.90;;;;;;5106220;28;19911;-64
2022/08/12 07:09:42;;;;;;;;;;;26.20;45.90;;;;;;5104748;28;19922;-58
2022/08/12 07:12:18;;;;;;;;;;;26.30;45.80;;;;;;5098686;28;19916;-58
2022/08/12 07:14:50;;;;;;;;;;;26.40;45.70;;;;;;5091873;28;20417;-58
2022/08/12 07:17:15;;;;;;;;;;;26.50;45.50;;;;;;5084081;28;20399;-58
2022/08/12 07:19:42;;;;;;;;;;;26.60;45.40;;;;;;5102562;28;19989;-58
2022/08/12 07:22:08;;;;;;;;;;;26.70;45.10;;;;;;5097441;28;19920;-58
2022/08/12 07:24:34;;;;;;;;;;;26.80;44.90;;;;;;5095387;28;20494;-58
2022/08/12 07:26:59;;;;;;;;;;;26.90;44.80;;;;;;5101545;28;20014;-60
2022/08/12 07:29:27;;;;;;;;;;;27.00;44.70;;;;;;5093130;28;19951;-60
2022/08/12 07:31:52;;;;;;;;;;;27.10;44.50;;;;;;5106324;28;20455;-60
2022/08/12 07:34:18;;;;;;;;;;;27.10;44.30;;;;;;5103103;28;20019;-61
2022/08/12 07:36:46;;;;;;;;;;;27.20;44.10;;;;;;5098335;28;19932;-60
2022/08/12 07:39:12;;;;;;;;;;;27.30;44.00;;;;;;5097095;28;19912;-61
2022/08/12 07:41:38;;;;;;;;;;;27.40;43.90;;;;;;5084838;28;20341;-60
2022/08/12 07:44:05;;;;;;;;;;;27.50;43.90;;;;;;5082152;28;20393;-60
2022/08/12 07:46:39;;;;;;;;;;;27.60;43.80;;;;;;5081286;28;20278;-60
2022/08/12 07:49:23;;;;;;;;;;;27.60;43.70;;;;;;5081817;28;20003;-61
2022/08/12 07:51:49;;;;;;;;;;;27.70;43.60;;;;;;5080087;28;19913;-61
2022/08/12 07:54:15;;;;;;;;;;;27.70;43.40;;;;;;5081879;28;19973;-61
2022/08/12 07:56:41;;;;;;;;;;;27.80;43.50;;;;;;5084954;28;19922;-60
2022/08/12 07:59:07;;;;;;;;;;;27.90;43.40;;;;;;5084536;28;20327;-66
2022/08/12 08:01:33;;;;;;;;;;;28.00;43.30;;;;;;5079397;28;19977;-66
2022/08/12 08:06:43;;;;;;;;;;;28.10;43.20;;;;;;5084731;28;19966;-60
2022/08/12 08:09:10;;;;;;;;;;;28.20;43.10;;;;;;5088953;28;19920;-60
2022/08/12 08:14:20;;;;;;;;;;;28.30;43.20;;;;;;5085676;28;20385;-66
2022/08/12 08:16:47;;;;;;;;;;;28.40;43.40;;;;;;5081863;28;20022;-60
2022/08/12 08:19:22;;;;;;;;;;;28.40;43.30;;;;;;5077481;28;20401;-65
2022/08/12 08:21:48;;;;;;;;;;;28.50;43.40;;;;;;5082645;28;19912;-66
2022/08/12 08:24:13;;;;;;;;;;;28.60;43.30;;;;;;5082107;28;20272;-66
2022/08/12 08:26:43;;;;;;;;;;;28.70;43.30;;;;;;5086518;28;20003;-66
2022/08/12 08:29:11;;;;;;;;;;;28.80;43.10;;;;;;5084154;28;19931;-66
2022/08/12 08:31:42;;;;;;;;;;;28.90;43.00;;;;;;5085721;28;20355;-59
2022/08/12 08:34:14;;;;;;;;;;;29.00;43.00;;;;;;5081042;28;20290;-59
2022/08/12 08:36:40;;;;;;;;;;;29.00;42.80;;;;;;5087814;28;20370;-60
2022/08/12 08:39:06;;;;;;;;;;;29.10;42.80;;;;;;5083470;28;20003;-65
2022/08/12 08:44:16;;;;;;;;;;;29.20;42.50;;;;;;5084645;28;19978;-66
2022/08/12 08:46:43;;;;;;;;;;;29.30;42.20;;;;;;5076894;28;20330;-66
2022/08/12 08:49:09;;;;;;;;;;;29.40;42.10;;;;;;5088007;28;19927;-66
2022/08/12 08:51:35;;;;;;;;;;;29.50;42.00;;;;;;5094444;28;19994;-66
2022/08/12 08:54:01;;;;;;;;;;;29.50;41.60;;;;;;5079069;28;19951;-66
2022/08/12 08:56:28;;;;;;;;;;;29.60;41.40;;;;;;5086534;28;20685;-66
2022/08/12 08:58:53;;;;;;;;;;;29.70;41.10;;;;;;5090241;28;19985;-66
2022/08/12 09:01:22;;;;;;;;;;;29.80;40.70;;;;;;5082501;28;19998;-66
2022/08/12 09:03:48;;;;;;;;;;;29.90;40.20;;;;;;5087123;28;20018;-66
2022/08/12 09:06:14;;;;;;;;;;;30.00;39.90;;;;;;5092116;28;20324;-69
2022/08/12 09:08:41;;;;;;;;;;;30.10;39.70;;;;;;5090030;28;19909;-62
2022/08/12 09:13:50;;;;;;;;;;;30.30;39.70;;;;;;5086985;28;19988;-61
2022/08/12 09:16:16;;;;;;;;;;;30.40;39.40;;;;;;5091869;28;19916;-61
2022/08/12 09:18:42;;;;;;;;;;;30.50;39.30;;;;;;5089780;28;19919;-61
2022/08/12 09:21:08;;;;;;;;;;;30.70;39.80;;;;;;5089747;28;19916;-61
2022/08/12 09:23:35;;;;;;;;;;;30.70;37.80;;;;;;5089182;28;19920;-61
2022/08/12 09:26:01;;;;;;;;;;;30.80;37.90;;;;;;5089159;28;19919;-60
2022/08/12 09:28:31;;;;;;;;;;;30.80;37.60;;;;;;5089780;28;19912;-61
2022/08/12 09:30:57;;;;;;;;;;;30.90;37.70;;;;;;5097476;28;20027;-61
2022/08/12 09:33:27;;;;;;;;;;;31.10;38.30;;;;;;5081206;28;19998;-61
2022/08/12 09:35:53;;;;;;;;;;;31.10;37.40;;;;;;5088519;28;19912;-61
2022/08/12 09:38:19;;;;;;;;;;;31.30;37.40;;;;;;5087734;28;20294;-62
2022/08/12 09:40:46;;;;;;;;;;;31.40;37.30;;;;;;5084049;28;19917;-66
2022/08/12 09:45:58;;;;;;;;;;;31.70;37.10;;;;;;5086003;28;20385;-66
2022/08/12 09:48:23;;;;;;;;;;;31.80;36.70;;;;;;5108225;28;19916;-67
2022/08/12 09:50:50;;;;;;;;;;;31.90;36.40;;;;;;5108781;28;19923;-67
2022/08/12 09:53:23;;;;;;;;;;;32.00;36.30;;;;;;5108637;28;19951;-66
2022/08/12 09:55:53;;;;;;;;;;;32.10;36.00;;;;;;5105423;28;19916;-66
2022/08/12 09:58:27;;;;;;;;;;;32.30;36.00;;;;;;5105784;28;19923;-66
2022/08/12 10:01:03;;;;;;;;;;;32.40;35.90;;;;;;5094243;28;19999;-66
2022/08/12 10:03:30;;;;;;;;;;;32.50;35.90;;;;;;5100617;28;20003;-66
2022/08/12 10:05:59;;;;;;;;;;;32.60;34.80;;;;;;5099688;28;20366;-67
2022/08/12 10:08:29;;;;;;;;;;;32.70;34.80;;;;;;5098513;28;20366;-61
2022/08/12 10:13:43;;;;;;;;;;;32.80;34.90;;;;;;5092545;28;19927;-61
2022/08/12 10:16:11;;;;;;;;;;;33.00;33.30;;;;;;5089682;28;19912;-61
2022/08/12 10:18:38;;;;;;;;;;;33.00;33.70;;;;;;5096578;28;19920;-60
2022/08/12 10:21:04;;;;;;;;;;;33.00;33.90;;;;;;5098664;28;19912;-61
2022/08/12 10:23:32;;;;;;;;;;;33.10;34.00;;;;;;5093313;28;19928;-61
2022/08/12 10:31:26;;;;;;;;;;;33.50;33.10;;;;;;5095814;28;19950;-66
2022/08/12 10:33:52;;;;;;;;;;;33.60;33.10;;;;;;5111576;28;19919;-66
2022/08/12 10:36:17;;;;;;;;;;;33.70;33.30;;;;;;5099889;28;19919;-65
2022/08/12 10:38:46;;;;;;;;;;;33.80;33.40;;;;;;5101931;28;19977;-66
2022/08/12 10:43:56;;;;;;;;;;;34.00;31.90;;;;;;5096656;28;19938;-61
2022/08/12 10:46:23;;;;;;;;;;;33.90;31.60;;;;;;5091390;28;19920;-60
2022/08/12 10:48:52;;;;;;;;;;;33.90;31.90;;;;;;5095220;27;19988;-66
2022/08/12 10:51:18;;;;;;;;;;;34.00;32.10;;;;;;5083521;28;19954;-60
2022/08/12 10:53:46;;;;;;;;;;;34.10;31.90;;;;;;5087637;28;19912;-60
2022/08/12 10:56:13;;;;;;;;;;;34.20;31.30;;;;;;5087299;28;20086;-61
2022/08/12 10:58:39;;;;;;;;;;;34.30;31.30;;;;;;5087682;28;19981;-60
2022/08/12 11:01:05;;;;;;;;;;;34.50;31.20;;;;;;5081198;28;19912;-61
2022/08/12 11:03:33;;;;;;;;;;;34.50;31.30;;;;;;5081253;28;19944;-61
2022/08/12 11:05:59;;;;;;;;;;;34.70;31.30;;;;;;5097221;28;20425;-60
2022/08/12 11:08:26;;;;;;;;;;;34.80;31.20;;;;;;5097707;28;20019;-60
2022/08/12 11:10:52;;;;;;;;;;;35.00;31.00;;;;;;5105140;28;19980;-60
2022/08/12 11:13:18;;;;;;;;;;;35.00;30.30;;;;;;5103194;28;19923;-61
2022/08/12 11:15:44;;;;;;;;;;;35.10;30.60;;;;;;5101094;28;19920;-61
2022/08/12 11:18:10;;;;;;;;;;;35.20;30.80;;;;;;5103744;28;20363;-61
2022/08/12 11:20:36;;;;;;;;;;;35.40;30.70;;;;;;5091919;28;19920;-61
2022/08/12 11:23:01;;;;;;;;;;;35.50;30.80;;;;;;5074977;28;19924;-61
2022/08/12 11:25:27;;;;;;;;;;;35.60;30.60;;;;;;5086251;28;20338;-61
2022/08/12 11:27:52;;;;;;;;;;;35.60;30.20;;;;;;5092118;28;19916;-61
2022/08/12 11:30:19;;;;;;;;;;;35.60;30.30;;;;;;5102210;28;20371;-66
2022/08/12 11:32:44;;;;;;;;;;;35.70;30.40;;;;;;5098601;28;19924;-65
2022/08/12 11:35:10;;;;;;;;;;;35.90;30.20;;;;;;5102719;28;19919;-66
2022/08/12 11:37:37;;;;;;;;;;;36.00;30.20;;;;;;5089657;28;19921;-65
2022/08/12 11:40:04;;;;;;;;;;;36.20;30.00;;;;;;5093997;28;19927;-66
2022/08/12 11:42:29;;;;;;;;;;;36.30;29.80;;;;;;5090175;28;20457;-66
2022/08/12 11:44:55;;;;;;;;;;;36.40;29.70;;;;;;5101015;28;19923;-66
2022/08/12 11:47:20;;;;;;;;;;;36.50;29.80;;;;;;5103607;28;19916;-66
2022/08/12 11:49:46;;;;;;;;;;;36.70;29.70;;;;;;5104225;28;19924;-61
2022/08/12 11:52:11;;;;;;;;;;;36.80;29.70;;;;;;5100982;28;19927;-60
2022/08/12 11:54:37;;;;;;;;;;;36.90;29.70;;;;;;5094138;28;19930;-60
2022/08/12 11:57:03;;;;;;;;;;;37.10;29.60;;;;;;5084370;28;19920;-66
2022/08/12 11:59:30;;;;;;;;;;;37.20;29.10;;;;;;5088180;28;19924;-65
2022/08/12 12:01:55;;;;;;;;;;;37.10;29.20;;;;;;5090901;28;20000;-65
2022/08/12 12:04:21;;;;;;;;;;;37.20;29.40;;;;;;5089342;28;20057;-60
2022/08/12 12:06:46;;;;;;;;;;;37.30;29.40;;;;;;5099221;28;20421;-65
2022/08/12 12:09:12;;;;;;;;;;;37.40;29.50;;;;;;5102015;28;19932;-65
2022/08/12 12:11:37;;;;;;;;;;;37.50;29.50;;;;;;5098370;28;19978;-66
2022/08/12 12:14:03;;;;;;;;;;;37.50;29.40;;;;;;5095163;28;20410;-66
2022/08/12 12:16:29;;;;;;;;;;;37.60;29.30;;;;;;5093054;28;20447;-60
2022/08/12 12:18:54;;;;;;;;;;;37.60;29.00;;;;;;5091491;28;19985;-60
2022/08/12 12:21:20;;;;;;;;;;;37.60;29.10;;;;;;5105099;27;20384;-60
2022/08/12 12:23:45;;;;;;;;;;;37.70;29.20;;;;;;5099222;28;20384;-60
2022/08/12 12:26:11;;;;;;;;;;;37.90;29.10;;;;;;5107042;28;19923;-60
2022/08/12 12:28:37;;;;;;;;;;;38.00;29.00;;;;;;5108068;28;20279;-60
2022/08/12 12:31:03;;;;;;;;;;;38.20;28.90;;;;;;5109403;28;20176;-60
2022/08/12 12:33:29;;;;;;;;;;;38.30;29.00;;;;;;5099709;28;19994;-62
2022/08/12 12:35:54;;;;;;;;;;;38.40;28.80;;;;;;5099484;28;19916;-60
2022/08/12 12:38:20;;;;;;;;;;;38.50;28.20;;;;;;5099093;28;19961;-60
2022/08/12 12:40:46;;;;;;;;;;;38.40;28.30;;;;;;5088184;28;19959;-60
2022/08/12 12:43:12;;;;;;;;;;;38.40;28.20;;;;;;5099050;28;19916;-60
2022/08/12 12:45:38;;;;;;;;;;;38.40;28.20;;;;;;5089085;28;19927;-60
2022/08/12 12:48:05;;;;;;;;;;;38.50;28.30;;;;;;5089760;28;19916;-60
2022/08/12 12:50:32;;;;;;;;;;;38.70;28.20;;;;;;5086902;28;20378;-60
2022/08/12 12:52:58;;;;;;;;;;;38.90;27.80;;;;;;5086295;28;20347;-60
2022/08/12 12:55:24;;;;;;;;;;;38.90;27.70;;;;;;5091001;28;19999;-65
2022/08/12 12:57:50;;;;;;;;;;;38.90;27.90;;;;;;5085335;28;19951;-65
2022/08/12 13:00:17;;;;;;;;;;;39.00;27.90;;;;;;5092707;28;19950;-65
2022/08/12 13:02:51;;;;;;;;;;;39.20;27.90;;;;;;5086827;28;20593;-65
2022/08/12 13:05:26;;;;;;;;;;;39.30;28.00;;;;;;5079848;28;19995;-65
2022/08/12 13:07:53;;;;;;;;;;;39.40;27.60;;;;;;5081103;28;19934;-65
2022/08/12 13:10:19;;;;;;;;;;;39.40;27.50;;;;;;5079841;28;19963;-65
2022/08/12 13:12:46;;;;;;;;;;;39.30;27.50;;;;;;5079344;28;20279;-65
2022/08/12 13:15:15;;;;;;;;;;;39.30;26.90;;;;;;5092003;28;19922;-60
2022/08/12 13:17:55;;;;;;;;;;;39.30;27.00;;;;;;5083911;28;19912;-60
2022/08/12 13:20:21;;;;;;;;;;;39.20;27.10;;;;;;5082717;28;19908;-65
2022/08/12 13:22:47;;;;;;;;;;;39.30;27.20;;;;;;5084535;28;19924;-65
2022/08/12 13:25:14;;;;;;;;;;;39.40;26.90;;;;;;5082326;28;19912;-65
2022/08/12 13:27:46;;;;;;;;;;;39.50;27.00;;;;;;5083596;28;19908;-65
2022/08/12 13:30:16;;;;;;;;;;;39.50;26.80;;;;;;5080560;28;19923;-65
2022/08/12 13:32:49;;;;;;;;;;;39.50;26.60;;;;;;5089141;28;19962;-60
2022/08/12 13:35:15;;;;;;;;;;;39.40;26.80;;;;;;5090694;28;20244;-60
2022/08/12 13:37:42;;;;;;;;;;;39.40;26.80;;;;;;5085287;28;20026;-60
2022/08/12 13:40:09;;;;;;;;;;;39.50;26.80;;;;;;5085760;28;19947;-60
2022/08/12 13:42:38;;;;;;;;;;;39.60;26.90;;;;;;5085433;28;19982;-60
2022/08/12 13:45:05;;;;;;;;;;;39.70;27.00;;;;;;5085124;28;19966;-60
2022/08/12 13:47:51;;;;;;;;;;;39.80;26.80;;;;;;5082607;28;20023;-60
2022/08/12 13:50:17;;;;;;;;;;;39.80;26.50;;;;;;5081859;28;19917;-60
2022/08/12 13:52:42;;;;;;;;;;;39.70;26.30;;;;;;5078229;28;20007;-60
2022/08/12 13:55:08;;;;;;;;;;;39.70;26.40;;;;;;5082558;28;19945;-60
2022/08/12 13:57:42;;;;;;;;;;;39.80;26.40;;;;;;5082485;28;20274;-61
2022/08/12 14:00:10;;;;;;;;;;;39.70;26.30;;;;;;5082989;28;19923;-60
2022/08/12 14:02:37;;;;;;;;;;;39.70;26.40;;;;;;5089175;28;19916;-64
2022/08/12 14:05:08;;;;;;;;;;;39.80;26.10;;;;;;5087122;28;19920;-65
2022/08/12 14:08:00;;;;;;;;;;;39.70;26.30;;;;;;5085544;28;19966;-65
2022/08/12 14:10:36;;;;;;;;;;;39.80;26.40;;;;;;5087376;28;19919;-66
2022/08/12 14:13:05;;;;;;;;;;;39.90;26.40;;;;;;5089131;28;19920;-65
2022/08/12 14:15:32;;;;;;;;;;;40.00;26.40;;;;;;5082724;28;19920;-65
2022/08/12 14:18:08;;;;;;;;;;;40.00;26.60;;;;;;5089708;28;19923;-66
2022/08/12 14:20:33;;;;;;;;;;;40.00;26.50;;;;;;5088575;28;20370;-61
2022/08/12 14:22:59;;;;;;;;;;;40.10;26.30;;;;;;5088488;28;19916;-61
2022/08/12 14:25:27;;;;;;;;;;;40.10;26.10;;;;;;5087911;28;19931;-61
2022/08/12 14:27:54;;;;;;;;;;;40.10;26.20;;;;;;5088188;28;20010;-62
2022/08/12 14:30:20;;;;;;;;;;;40.20;26.20;;;;;;5089115;28;19916;-62
2022/08/12 14:32:46;;;;;;;;;;;40.30;26.10;;;;;;5097029;28;19931;-66
2022/08/12 14:35:11;;;;;;;;;;;40.30;26.00;;;;;;5090789;28;19920;-67
2022/08/12 14:37:38;;;;;;;;;;;40.30;25.90;;;;;;5098289;28;20214;-67
2022/08/12 14:40:03;;;;;;;;;;;40.40;26.00;;;;;;5098408;28;19923;-67
2022/08/12 14:42:29;;;;;;;;;;;40.30;26.00;;;;;;5089458;28;19916;-67
2022/08/12 14:44:56;;;;;;;;;;;40.40;26.10;;;;;;5091576;28;19966;-67
2022/08/12 14:47:22;;;;;;;;;;;40.40;26.00;;;;;;5089727;28;19991;-67
2022/08/12 14:49:48;;;;;;;;;;;40.40;26.00;;;;;;5091832;28;20058;-61
2022/08/12 14:52:14;;;;;;;;;;;40.40;26.00;;;;;;5091748;28;19912;-67
2022/08/12 14:54:41;;;;;;;;;;;40.30;25.80;;;;;;5088380;28;19938;-67
2022/08/12 14:57:10;;;;;;;;;;;40.30;25.90;;;;;;5072755;28;19927;-67
2022/08/12 15:02:22;;;;;;;;;;;40.10;25.70;;;;;;5090293;28;19919;-67
2022/08/12 15:04:54;;;;;;;;;;;40.10;25.70;;;;;;5088492;28;20366;-67
2022/08/12 15:07:20;;;;;;;;;;;40.00;25.70;;;;;;5091661;28;19912;-67
2022/08/12 15:09:45;;;;;;;;;;;40.00;25.80;;;;;;5102079;28;19961;-67
2022/08/12 15:12:12;;;;;;;;;;;40.10;26.00;;;;;;5090439;28;20355;-67
2022/08/12 15:14:41;;;;;;;;;;;40.10;25.70;;;;;;5089964;28;20268;-61
2022/08/12 15:17:07;;;;;;;;;;;40.10;25.50;;;;;;5092443;28;19951;-62
2022/08/12 15:19:33;;;;;;;;;;;39.80;25.40;;;;;;5092051;28;19966;-61
2022/08/12 15:21:58;;;;;;;;;;;39.50;25.70;;;;;;5086776;28;19955;-61
2022/08/12 15:24:24;;;;;;;;;;;39.40;25.80;;;;;;5087504;28;19939;-62
2022/08/12 15:26:50;;;;;;;;;;;39.40;25.90;;;;;;5084888;28;20275;-67
2022/08/12 15:29:15;;;;;;;;;;;39.40;25.80;;;;;;5082023;28;20368;-62
2022/08/12 15:31:41;;;;;;;;;;;39.50;25.80;;;;;;5092078;28;19920;-62
2022/08/12 15:34:07;;;;;;;;;;;39.60;25.80;;;;;;5099642;28;19926;-61
2022/08/12 15:36:33;;;;;;;;;;;39.50;25.70;;;;;;5096394;28;19920;-61
2022/08/12 15:38:59;;;;;;;;;;;39.50;25.90;;;;;;5088066;28;19945;-61
2022/08/12 15:41:25;;;;;;;;;;;39.50;25.90;;;;;;5099297;28;19969;-66
2022/08/12 15:43:51;;;;;;;;;;;39.50;25.80;;;;;;5093964;28;19920;-67
2022/08/12 15:46:17;;;;;;;;;;;39.40;25.80;;;;;;5091458;28;20474;-67
2022/08/12 15:48:43;;;;;;;;;;;39.40;25.90;;;;;;5091628;28;19912;-61
2022/08/12 15:51:09;;;;;;;;;;;39.40;26.00;;;;;;5091631;28;20385;-62
2022/08/12 15:56:40;;;;;;;;;;;39.40;25.90;;;;;;4979839;28;19914;-61
2022/08/12 15:59:06;;;;;;;;;;;39.40;25.80;;;;;;4987298;28;20456;-61
2022/08/12 16:01:32;;;;;;;;;;;39.40;25.90;;;;;;5026060;28;20071;-66
2022/08/12 16:03:58;;;;;;;;;;;39.40;26.10;;;;;;5088331;28;19920;-66
2022/08/12 16:06:24;;;;;;;;;;;39.20;25.70;;;;;;5096084;28;20272;-61